Time;durP1;ratioP1;P1;durP2;ratioP2;P2;SDS_P1;SDS_P2;PMS_P1;PMS_P2;Temp;Humidity;BMP_temperature;BMP_pressure;BME280_temperature;BME280_humidity;BME280_pressure;Samples;Min_cycle;Max_cycle;Signal;HPM_P1;HPM_P2
2022/03/26 00:21:39;;;;;;;19.25;14.43;;;;;;;;;;4430326;29;20107;-61
2022/03/26 00:24:06;;;;;;;20.92;12.40;;;;;;;;;;4136497;34;20495;-61
2022/03/26 00:26:33;;;;;;;18.65;15.43;;;;;;;;;;4135408;34;20216;-61
2022/03/26 00:28:59;;;;;;;21.33;16.23;;;;;;;;;;4136739;34;20111;-61
2022/03/26 00:31:26;;;;;;;18.25;15.13;;;;;;;;;;4134928;34;20123;-61
2022/03/26 00:33:53;;;;;;;18.58;15.57;;;;;;;;;;4136872;34;20187;-60
2022/03/26 00:36:20;;;;;;;19.10;14.65;;;;;;;;;;4136710;34;20119;-61
2022/03/26 00:38:46;;;;;;;19.35;15.73;;;;;;;;;;4136690;34;20126;-60
2022/03/26 00:41:12;;;;;;;19.92;15.88;;;;;;;;;;4135775;34;20216;-60
2022/03/26 00:43:38;;;;;;;20.50;15.57;;;;;;;;;;4135297;34;20103;-60
2022/03/26 00:46:04;;;;;;;21.77;15.05;;;;;;;;;;4138477;34;20673;-60
2022/03/26 00:48:30;;;;;;;18.60;15.05;;;;;;;;;;4150146;34;20507;-59
2022/03/26 00:50:56;;;;;;;23.52;15.40;;;;;;;;;;4149768;34;20129;-60
2022/03/26 00:53:22;;;;;;;19.87;15.15;;;;;;;;;;4138528;34;20524;-61
2022/03/26 00:55:48;;;;;;;19.98;15.18;;;;;;;;;;4137074;34;20146;-61
2022/03/26 00:58:14;;;;;;;22.85;15.40;;;;;;;;;;4140148;34;20107;-61
2022/03/26 01:00:42;;;;;;;19.55;14.87;;;;;;;;;;4136201;34;20267;-62
2022/03/26 01:03:09;;;;;;;19.00;14.27;;;;;;;;;;4136452;34;20134;-62
2022/03/26 01:05:35;;;;;;;16.62;14.27;;;;;;;;;;4136454;34;20199;-62
2022/03/26 01:08:01;;;;;;;17.25;13.27;;;;;;;;;;4136502;34;20119;-62
2022/03/26 01:10:28;;;;;;;18.40;14.10;;;;;;;;;;4135947;34;20134;-62
2022/03/26 01:12:55;;;;;;;18.58;13.43;;;;;;;;;;4136454;34;20107;-62
2022/03/26 01:15:22;;;;;;;18.02;14.15;;;;;;;;;;4124190;34;20167;-62
2022/03/26 01:17:49;;;;;;;18.40;14.68;;;;;;;;;;4136196;34;20557;-62
2022/03/26 01:20:16;;;;;;;17.12;14.30;;;;;;;;;;4136214;34;20216;-62
2022/03/26 01:22:42;;;;;;;22.15;15.40;;;;;;;;;;4136030;34;20141;-62
2022/03/26 01:25:08;;;;;;;19.40;14.15;;;;;;;;;;4136517;34;20120;-62
2022/03/26 01:27:35;;;;;;;17.35;13.32;;;;;;;;;;4136212;34;20115;-62
2022/03/26 01:30:01;;;;;;;17.45;14.45;;;;;;;;;;4136205;34;20112;-62
2022/03/26 01:32:27;;;;;;;16.75;13.75;;;;;;;;;;4136341;34;20158;-63
2022/03/26 01:34:53;;;;;;;16.92;13.50;;;;;;;;;;4136231;34;20122;-62
2022/03/26 01:37:18;;;;;;;18.45;13.82;;;;;;;;;;4136287;34;20103;-62
2022/03/26 01:39:45;;;;;;;16.35;14.25;;;;;;;;;;4135997;34;20100;-62
2022/03/26 01:42:11;;;;;;;18.90;15.40;;;;;;;;;;4123309;34;20155;-63
2022/03/26 01:44:38;;;;;;;15.85;13.62;;;;;;;;;;4123934;34;20123;-62
2022/03/26 01:47:04;;;;;;;17.40;14.38;;;;;;;;;;4123714;34;20216;-62
2022/03/26 01:49:31;;;;;;;18.25;14.20;;;;;;;;;;4135943;34;20123;-62
2022/03/26 01:52:00;;;;;;;17.87;13.93;;;;;;;;;;4135116;34;20143;-62
2022/03/26 01:54:27;;;;;;;21.87;14.35;;;;;;;;;;4135651;34;20222;-62
2022/03/26 01:56:54;;;;;;;16.98;14.05;;;;;;;;;;4141916;34;20554;-63
2022/03/26 01:59:20;;;;;;;17.83;14.73;;;;;;;;;;4123589;34;20104;-62
2022/03/26 02:01:46;;;;;;;16.25;14.00;;;;;;;;;;4135845;34;20208;-62
2022/03/26 02:04:12;;;;;;;18.25;14.48;;;;;;;;;;4135945;34;20096;-62
2022/03/26 02:06:40;;;;;;;18.17;14.27;;;;;;;;;;4135750;34;20111;-62
2022/03/26 02:09:08;;;;;;;23.25;15.98;;;;;;;;;;4135787;34;20469;-62
2022/03/26 02:11:36;;;;;;;22.13;15.70;;;;;;;;;;4135573;34;20127;-61
2022/03/26 02:14:03;;;;;;;16.20;13.82;;;;;;;;;;4136043;34;20136;-62
2022/03/26 02:16:30;;;;;;;22.17;14.82;;;;;;;;;;4123337;34;20162;-62
2022/03/26 02:18:56;;;;;;;19.50;15.15;;;;;;;;;;4123528;34;20123;-62
2022/03/26 02:21:23;;;;;;;19.05;13.90;;;;;;;;;;4122658;34;20910;-62
2022/03/26 02:23:50;;;;;;;20.42;13.98;;;;;;;;;;4135673;34;20135;-62
2022/03/26 02:26:25;;;;;;;20.50;14.77;;;;;;;;;;4135617;34;20111;-63
2022/03/26 02:28:53;;;;;;;18.98;14.25;;;;;;;;;;4135748;34;20181;-63
2022/03/26 02:31:20;;;;;;;19.45;14.13;;;;;;;;;;4135393;34;20199;-63
2022/03/26 02:33:46;;;;;;;19.98;14.30;;;;;;;;;;4135598;34;20103;-62
2022/03/26 02:36:13;;;;;;;22.35;15.18;;;;;;;;;;4123094;34;20559;-61
2022/03/26 02:38:39;;;;;;;18.55;13.90;;;;;;;;;;4135731;34;20120;-63
2022/03/26 02:41:06;;;;;;;20.00;15.57;;;;;;;;;;4135121;34;20516;-63
2022/03/26 02:43:32;;;;;;;17.52;14.32;;;;;;;;;;4123146;34;20107;-62
2022/03/26 02:45:58;;;;;;;18.50;14.02;;;;;;;;;;4135322;34;20255;-62
2022/03/26 02:48:24;;;;;;;18.80;13.93;;;;;;;;;;4135175;34;20552;-62
2022/03/26 02:50:50;;;;;;;20.30;14.15;;;;;;;;;;4135121;34;20172;-62
2022/03/26 02:53:16;;;;;;;16.95;13.57;;;;;;;;;;4135012;34;20119;-62
2022/03/26 02:55:43;;;;;;;20.83;14.15;;;;;;;;;;4135398;34;20214;-62
2022/03/26 02:58:09;;;;;;;19.98;14.13;;;;;;;;;;4122050;34;20195;-62
2022/03/26 03:00:36;;;;;;;21.50;13.85;;;;;;;;;;4121905;34;20100;-62
2022/03/26 03:03:02;;;;;;;20.05;13.45;;;;;;;;;;4147710;34;20478;-62
2022/03/26 03:05:28;;;;;;;16.67;12.48;;;;;;;;;;4150642;34;20123;-62
2022/03/26 03:07:54;;;;;;;17.50;12.95;;;;;;;;;;4150858;34;20285;-63
2022/03/26 03:10:20;;;;;;;16.48;12.23;;;;;;;;;;4150558;34;20127;-63
2022/03/26 03:12:50;;;;;;;19.42;13.35;;;;;;;;;;4150962;34;20099;-63
2022/03/26 03:15:19;;;;;;;19.85;12.32;;;;;;;;;;4150821;34;20110;-62
2022/03/26 03:17:47;;;;;;;18.20;12.68;;;;;;;;;;4150640;34;20111;-63
2022/03/26 03:20:14;;;;;;;20.08;11.70;;;;;;;;;;4150392;34;20232;-63
2022/03/26 03:22:40;;;;;;;17.30;12.37;;;;;;;;;;4150546;34;20131;-63
2022/03/26 03:25:07;;;;;;;16.08;12.60;;;;;;;;;;4140906;34;20131;-63
2022/03/26 03:27:34;;;;;;;17.42;11.23;;;;;;;;;;4137002;34;20124;-62
2022/03/26 03:30:00;;;;;;;17.37;11.00;;;;;;;;;;4137123;34;20127;-60
2022/03/26 03:32:26;;;;;;;16.73;12.68;;;;;;;;;;4137512;34;20273;-61
2022/03/26 03:34:52;;;;;;;16.77;8.55;;;;;;;;;;4137184;34;20543;-61
2022/03/26 03:37:18;;;;;;;14.13;9.45;;;;;;;;;;4137150;34;20516;-62
2022/03/26 03:39:45;;;;;;;16.40;11.73;;;;;;;;;;4136908;34;20449;-60
2022/03/26 03:42:11;;;;;;;14.52;11.12;;;;;;;;;;4137015;34;20114;-61
2022/03/26 03:44:37;;;;;;;19.23;12.10;;;;;;;;;;4137262;34;20828;-60
2022/03/26 03:47:04;;;;;;;16.83;11.82;;;;;;;;;;4136818;34;20213;-61
2022/03/26 03:49:33;;;;;;;18.15;12.70;;;;;;;;;;4137170;34;20111;-61
2022/03/26 03:51:59;;;;;;;15.10;11.82;;;;;;;;;;4124004;34;20281;-61
2022/03/26 03:54:26;;;;;;;20.08;13.23;;;;;;;;;;4137089;34;20196;-61
2022/03/26 03:56:52;;;;;;;18.92;11.65;;;;;;;;;;4143154;34;20127;-61
2022/03/26 03:59:18;;;;;;;18.75;12.88;;;;;;;;;;4137929;34;20551;-61
2022/03/26 04:01:44;;;;;;;17.75;11.70;;;;;;;;;;4150248;34;20111;-60
2022/03/26 04:04:10;;;;;;;15.52;11.07;;;;;;;;;;4150475;34;20110;-62
2022/03/26 04:06:37;;;;;;;17.35;11.32;;;;;;;;;;4150277;34;20496;-61
2022/03/26 04:09:03;;;;;;;19.58;11.30;;;;;;;;;;4150393;34;20111;-62
2022/03/26 04:11:29;;;;;;;19.92;12.25;;;;;;;;;;4150124;34;20138;-61
2022/03/26 04:13:56;;;;;;;17.45;11.95;;;;;;;;;;4150573;34;20114;-62
2022/03/26 04:16:22;;;;;;;21.58;11.60;;;;;;;;;;4149607;34;20480;-63
2022/03/26 04:18:48;;;;;;;17.15;11.00;;;;;;;;;;4150391;34;20528;-62
2022/03/26 04:21:15;;;;;;;16.48;11.80;;;;;;;;;;4149671;34;20127;-62
2022/03/26 04:23:41;;;;;;;16.17;11.68;;;;;;;;;;4147992;34;20451;-61
2022/03/26 04:26:08;;;;;;;22.10;15.85;;;;;;;;;;4124296;34;20116;-61
2022/03/26 04:28:34;;;;;;;16.48;11.63;;;;;;;;;;4124390;34;20522;-62
2022/03/26 04:31:01;;;;;;;17.73;11.63;;;;;;;;;;4135239;34;20135;-62
2022/03/26 04:33:27;;;;;;;16.73;11.88;;;;;;;;;;4136992;34;20103;-62
2022/03/26 04:35:53;;;;;;;17.17;12.32;;;;;;;;;;4136745;34;20139;-62
2022/03/26 04:38:19;;;;;;;20.45;12.75;;;;;;;;;;4137144;34;20119;-62
2022/03/26 04:40:46;;;;;;;17.85;11.45;;;;;;;;;;4134901;34;20134;-61
2022/03/26 04:43:13;;;;;;;64.32;28.15;;;;;;;;;;4124084;34;20100;-62
2022/03/26 04:45:39;;;;;;;59.50;26.70;;;;;;;;;;4136652;34;20183;-61
2022/03/26 04:48:05;;;;;;;41.00;19.77;;;;;;;;;;4136325;34;20221;-62
2022/03/26 04:50:31;;;;;;;21.65;11.20;;;;;;;;;;4136430;34;20718;-62
2022/03/26 04:52:57;;;;;;;16.80;10.20;;;;;;;;;;4135947;34;20207;-62
2022/03/26 04:55:23;;;;;;;19.75;11.10;;;;;;;;;;4136229;34;20119;-62
2022/03/26 04:57:51;;;;;;;20.35;10.88;;;;;;;;;;4148396;34;20119;-62
2022/03/26 05:00:18;;;;;;;23.35;10.52;;;;;;;;;;4149770;34;20115;-61
2022/03/26 05:02:45;;;;;;;10.98;6.35;;;;;;;;;;4138191;34;20570;-59
2022/03/26 05:05:12;;;;;;;3.95;2.92;;;;;;;;;;4149148;34;20107;-59
2022/03/26 05:07:48;;;;;;;1.65;1.50;;;;;;;;;;4138962;34;20088;-59
2022/03/26 05:10:22;;;;;;;15.75;8.98;;;;;;;;;;4135918;34;20204;-59
2022/03/26 05:12:49;;;;;;;12.32;4.35;;;;;;;;;;4138946;34;20167;-58
2022/03/26 05:15:16;;;;;;;15.38;8.93;;;;;;;;;;4136419;34;20118;-58
2022/03/26 05:17:43;;;;;;;13.98;7.12;;;;;;;;;;4136426;34;20131;-58
2022/03/26 05:20:11;;;;;;;13.57;7.20;;;;;;;;;;4135883;34;20110;-58
2022/03/26 05:22:39;;;;;;;1.42;1.33;;;;;;;;;;4138785;34;20225;-58
2022/03/26 05:25:06;;;;;;;1.00;0.90;;;;;;;;;;4135534;34;20115;-59
2022/03/26 05:27:32;;;;;;;2.87;2.12;;;;;;;;;;4133687;34;20215;-58
2022/03/26 05:29:59;;;;;;;8.85;4.40;;;;;;;;;;4121552;34;20128;-59
2022/03/26 05:32:26;;;;;;;6.62;4.05;;;;;;;;;;4132623;34;20190;-59
2022/03/26 05:34:52;;;;;;;4.10;3.22;;;;;;;;;;4120680;34;20144;-59
2022/03/26 05:37:18;;;;;;;17.80;11.90;;;;;;;;;;4138696;34;20119;-60
2022/03/26 05:39:45;;;;;;;18.50;11.63;;;;;;;;;;4148050;34;20227;-59
2022/03/26 05:42:12;;;;;;;18.45;11.50;;;;;;;;;;4149330;34;20208;-60
2022/03/26 05:44:38;;;;;;;14.87;10.90;;;;;;;;;;4149241;34;20111;-60
2022/03/26 05:47:04;;;;;;;14.98;11.38;;;;;;;;;;4148793;34;20590;-59
2022/03/26 05:49:30;;;;;;;16.37;11.45;;;;;;;;;;4149338;34;20459;-59
2022/03/26 05:51:56;;;;;;;18.45;11.52;;;;;;;;;;4145727;34;20144;-59
2022/03/26 05:54:22;;;;;;;14.73;11.90;;;;;;;;;;4136017;34;20123;-59
2022/03/26 05:56:54;;;;;;;17.17;11.25;;;;;;;;;;4141837;34;20125;-59
2022/03/26 05:59:21;;;;;;;20.17;11.25;;;;;;;;;;4149177;34;20206;-59
2022/03/26 06:01:48;;;;;;;15.50;11.12;;;;;;;;;;4136397;34;20114;-60
2022/03/26 06:04:15;;;;;;;19.05;10.88;;;;;;;;;;4149733;34;20224;-58
2022/03/26 06:06:41;;;;;;;18.05;11.52;;;;;;;;;;4149202;34;20119;-58
2022/03/26 06:09:08;;;;;;;14.80;11.18;;;;;;;;;;4149215;34;20194;-59
2022/03/26 06:11:34;;;;;;;17.65;11.90;;;;;;;;;;4149212;34;20207;-59
2022/03/26 06:14:00;;;;;;;17.58;10.63;;;;;;;;;;4147997;34;20119;-59
2022/03/26 06:16:26;;;;;;;14.87;10.82;;;;;;;;;;4149169;34;20127;-59
2022/03/26 06:18:52;;;;;;;15.10;10.27;;;;;;;;;;4149133;34;20095;-59
2022/03/26 06:21:18;;;;;;;12.75;10.93;;;;;;;;;;4148717;34;20635;-60
2022/03/26 06:23:44;;;;;;;13.40;10.25;;;;;;;;;;4146858;34;20628;-60
2022/03/26 06:26:10;;;;;;;13.52;10.63;;;;;;;;;;4135634;34;20134;-59
2022/03/26 06:28:37;;;;;;;12.18;9.82;;;;;;;;;;4135697;34;20453;-60
2022/03/26 06:31:04;;;;;;;17.02;11.38;;;;;;;;;;4135290;34;20127;-59
2022/03/26 06:33:30;;;;;;;18.20;10.88;;;;;;;;;;4135505;34;20096;-59
2022/03/26 06:35:56;;;;;;;11.55;8.18;;;;;;;;;;4135485;34;20108;-61
2022/03/26 06:38:22;;;;;;;9.77;5.25;;;;;;;;;;4135654;34;20111;-60
2022/03/26 06:40:48;;;;;;;6.62;3.37;;;;;;;;;;4137242;34;20220;-60
2022/03/26 06:43:14;;;;;;;1.55;1.45;;;;;;;;;;4114295;34;20535;-59
2022/03/26 06:45:40;;;;;;;2.05;1.70;;;;;;;;;;4137587;34;20166;-60
2022/03/26 06:48:07;;;;;;;3.47;1.75;;;;;;;;;;4137354;34;20095;-59
2022/03/26 06:50:34;;;;;;;3.47;1.58;;;;;;;;;;4137578;34;20126;-60
2022/03/26 06:53:00;;;;;;;4.28;2.35;;;;;;;;;;4136864;34;20107;-59
2022/03/26 06:55:44;;;;;;;5.72;2.15;;;;;;;;;;4137556;34;20135;-60
2022/03/26 06:58:10;;;;;;;4.35;2.92;;;;;;;;;;4151007;34;20529;-61
2022/03/26 07:00:36;;;;;;;4.95;4.18;;;;;;;;;;4150756;34;20119;-64
2022/03/26 07:03:02;;;;;;;14.38;6.68;;;;;;;;;;4150751;34;20131;-72
2022/03/26 07:05:28;;;;;;;7.05;4.72;;;;;;;;;;4150667;34;20141;-66
2022/03/26 07:07:54;;;;;;;11.30;7.90;;;;;;;;;;4150733;34;20139;-64
2022/03/26 07:10:20;;;;;;;10.77;7.37;;;;;;;;;;4150602;34;20115;-67
2022/03/26 07:12:47;;;;;;;11.40;8.50;;;;;;;;;;4150660;34;20535;-65
2022/03/26 07:15:13;;;;;;;14.68;8.23;;;;;;;;;;4151012;34;20134;-66
2022/03/26 07:17:40;;;;;;;14.00;8.23;;;;;;;;;;4150934;34;20118;-66
2022/03/26 07:20:06;;;;;;;10.75;5.10;;;;;;;;;;4138122;34;20127;-66
2022/03/26 07:22:32;;;;;;;12.43;7.80;;;;;;;;;;4150517;34;20103;-68
2022/03/26 07:24:58;;;;;;;10.82;7.07;;;;;;;;;;4141372;34;20184;-68
2022/03/26 07:27:24;;;;;;;11.88;6.20;;;;;;;;;;4137032;34;20139;-67
2022/03/26 07:29:50;;;;;;;12.18;7.37;;;;;;;;;;4137158;34;20118;-65
2022/03/26 07:32:17;;;;;;;2.50;2.10;;;;;;;;;;4137190;34;20130;-66
2022/03/26 07:34:43;;;;;;;15.63;9.85;;;;;;;;;;4137291;34;20119;-65
2022/03/26 07:37:09;;;;;;;10.90;7.55;;;;;;;;;;4136773;34;20123;-65
2022/03/26 07:39:35;;;;;;;13.32;7.78;;;;;;;;;;4137068;34;20210;-67
2022/03/26 07:42:01;;;;;;;14.00;7.53;;;;;;;;;;4136930;34;20495;-68
2022/03/26 07:44:27;;;;;;;8.38;5.07;;;;;;;;;;4137177;34;20127;-68
2022/03/26 07:46:53;;;;;;;15.00;8.55;;;;;;;;;;4136758;34;20484;-68
2022/03/26 07:49:19;;;;;;;1.77;1.65;;;;;;;;;;4136979;34;20107;-68
2022/03/26 07:51:45;;;;;;;9.43;5.05;;;;;;;;;;4135859;34;20096;-68
2022/03/26 07:54:11;;;;;;;4.07;2.72;;;;;;;;;;4137401;34;20507;-68
2022/03/26 07:56:37;;;;;;;12.50;6.40;;;;;;;;;;4142343;34;20115;-67
2022/03/26 07:59:03;;;;;;;4.00;2.58;;;;;;;;;;4150405;34;20126;-67
2022/03/26 08:01:29;;;;;;;17.30;11.80;;;;;;;;;;4150021;34;20231;-67
2022/03/26 08:03:55;;;;;;;15.27;11.57;;;;;;;;;;4150652;34;20219;-67
2022/03/26 08:06:22;;;;;;;17.30;11.48;;;;;;;;;;4150338;34;20460;-70
2022/03/26 08:08:48;;;;;;;18.92;13.15;;;;;;;;;;4150065;34;20099;-66
2022/03/26 08:11:14;;;;;;;16.83;12.13;;;;;;;;;;4150029;34;20204;-66
2022/03/26 08:13:40;;;;;;;19.00;11.98;;;;;;;;;;4137884;34;20203;-67
2022/03/26 08:16:09;;;;;;;15.65;11.35;;;;;;;;;;4150282;34;20208;-67
2022/03/26 08:18:35;;;;;;;16.25;12.05;;;;;;;;;;4150693;34;20137;-67
2022/03/26 08:21:02;;;;;;;14.38;11.45;;;;;;;;;;4149974;34;20536;-67
2022/03/26 08:23:28;;;;;;;16.10;11.40;;;;;;;;;;4136858;34;20211;-66
2022/03/26 08:28:38;;;;;;;18.52;11.80;;;;;;;;;;4136825;34;20622;-65
2022/03/26 08:31:04;;;;;;;16.90;11.00;;;;;;;;;;4136313;34;20298;-67
2022/03/26 08:33:30;;;;;;;18.27;11.48;;;;;;;;;;4136928;34;20231;-66
2022/03/26 08:35:56;;;;;;;24.20;12.32;;;;;;;;;;4136577;34;20115;-66
2022/03/26 08:38:22;;;;;;;19.27;10.77;;;;;;;;;;4137043;34;20099;-66
2022/03/26 08:40:48;;;;;;;19.08;10.88;;;;;;;;;;4136007;34;20116;-66
2022/03/26 08:43:15;;;;;;;22.25;12.27;;;;;;;;;;4136820;34;20123;-67
2022/03/26 08:45:41;;;;;;;16.15;10.98;;;;;;;;;;4124215;34;20504;-65
2022/03/26 08:48:08;;;;;;;21.87;11.95;;;;;;;;;;4136550;34;20131;-65
2022/03/26 08:50:34;;;;;;;14.35;8.90;;;;;;;;;;4136424;34;20204;-66
2022/03/26 08:53:01;;;;;;;18.80;9.32;;;;;;;;;;4136131;34;20196;-67
2022/03/26 08:55:27;;;;;;;17.00;8.38;;;;;;;;;;4136450;34;20152;-66
2022/03/26 08:57:54;;;;;;;22.23;10.13;;;;;;;;;;4148741;34;20087;-68
2022/03/26 09:00:21;;;;;;;21.75;9.88;;;;;;;;;;4149694;34;20332;-66
2022/03/26 09:02:47;;;;;;;21.85;10.77;;;;;;;;;;4149533;34;20134;-66
2022/03/26 09:05:13;;;;;;;15.45;7.93;;;;;;;;;;4149916;34;20116;-66
2022/03/26 09:07:40;;;;;;;22.42;9.63;;;;;;;;;;4149895;34;20102;-65
2022/03/26 09:10:06;;;;;;;11.85;5.78;;;;;;;;;;4148456;34;20459;-66
2022/03/26 09:12:33;;;;;;;16.00;8.93;;;;;;;;;;4149905;34;20453;-66
2022/03/26 09:15:00;;;;;;;13.68;6.45;;;;;;;;;;4149622;34;20208;-65
2022/03/26 09:17:26;;;;;;;15.43;5.62;;;;;;;;;;4149863;34;20117;-65
2022/03/26 09:19:52;;;;;;;13.43;7.90;;;;;;;;;;4150018;34;20201;-66
2022/03/26 09:22:18;;;;;;;17.10;7.85;;;;;;;;;;4148263;34;20103;-65
2022/03/26 09:24:44;;;;;;;16.10;8.88;;;;;;;;;;4132747;34;20147;-64
2022/03/26 09:27:10;;;;;;;11.27;6.40;;;;;;;;;;4139225;34;20142;-69
2022/03/26 09:29:37;;;;;;;16.02;8.07;;;;;;;;;;4149555;34;20241;-65
2022/03/26 09:32:03;;;;;;;12.20;7.28;;;;;;;;;;4149358;34;20457;-65
2022/03/26 09:34:29;;;;;;;11.27;7.40;;;;;;;;;;4149765;34;20108;-65
2022/03/26 09:36:55;;;;;;;14.45;9.60;;;;;;;;;;4149448;34;20107;-64
2022/03/26 09:39:21;;;;;;;12.80;9.88;;;;;;;;;;4140011;34;20451;-64
2022/03/26 09:41:48;;;;;;;15.18;9.95;;;;;;;;;;4129611;34;20108;-67
2022/03/26 09:44:14;;;;;;;16.73;10.10;;;;;;;;;;4149600;34;20182;-67
2022/03/26 09:46:40;;;;;;;16.30;10.30;;;;;;;;;;4149130;34;20118;-69
2022/03/26 09:49:06;;;;;;;21.27;12.93;;;;;;;;;;4149440;34;20131;-69
2022/03/26 09:51:34;;;;;;;17.80;12.88;;;;;;;;;;4135247;34;20107;-69
2022/03/26 09:54:00;;;;;;;14.57;11.12;;;;;;;;;;4135789;34;20115;-68
2022/03/26 09:56:28;;;;;;;16.50;10.25;;;;;;;;;;4127723;34;20467;-68
2022/03/26 09:58:55;;;;;;;20.02;11.73;;;;;;;;;;4149506;34;20275;-68
2022/03/26 10:01:22;;;;;;;15.20;9.55;;;;;;;;;;4136584;34;20150;-67
2022/03/26 10:04:07;;;;;;;24.42;12.18;;;;;;;;;;4136921;34;20095;-68
2022/03/26 10:06:34;;;;;;;16.55;9.63;;;;;;;;;;4149560;34;20106;-68
2022/03/26 10:09:00;;;;;;;15.63;10.90;;;;;;;;;;4149374;34;20128;-69
2022/03/26 10:11:32;;;;;;;21.70;11.80;;;;;;;;;;4136267;34;20522;-69
2022/03/26 10:13:58;;;;;;;16.40;10.45;;;;;;;;;;4148575;34;20100;-69
2022/03/26 10:16:25;;;;;;;20.00;10.48;;;;;;;;;;4127327;34;20128;-68
2022/03/26 10:18:51;;;;;;;22.02;13.20;;;;;;;;;;4135155;34;20544;-69
2022/03/26 10:21:19;;;;;;;27.95;15.27;;;;;;;;;;4134755;34;20115;-69
2022/03/26 10:23:50;;;;;;;24.58;13.70;;;;;;;;;;4123338;34;20436;-69
2022/03/26 10:26:26;;;;;;;19.48;10.95;;;;;;;;;;4138930;34;20130;-69
2022/03/26 10:28:54;;;;;;;13.20;9.05;;;;;;;;;;4144325;34;20111;-69
2022/03/26 10:34:16;;;;;;;13.02;9.35;;;;;;;;;;4149466;34;20117;-69
2022/03/26 10:36:56;;;;;;;14.10;10.13;;;;;;;;;;4136664;34;20591;-69
2022/03/26 10:39:24;;;;;;;12.95;9.57;;;;;;;;;;4149128;34;20125;-68
2022/03/26 10:41:57;;;;;;;13.25;9.23;;;;;;;;;;4136284;34;20601;-68
2022/03/26 10:44:25;;;;;;;13.85;9.95;;;;;;;;;;4149052;34;20217;-69
2022/03/26 10:47:00;;;;;;;12.25;7.45;;;;;;;;;;4148824;34;20139;-69
2022/03/26 10:49:37;;;;;;;16.00;9.15;;;;;;;;;;4148450;34;20114;-69
2022/03/26 10:52:12;;;;;;;16.60;8.82;;;;;;;;;;4144272;34;20119;-68
2022/03/26 10:54:38;;;;;;;15.02;9.38;;;;;;;;;;4123162;34;20108;-69
2022/03/26 10:57:05;;;;;;;13.13;6.78;;;;;;;;;;4142747;34;20235;-68
2022/03/26 10:59:32;;;;;;;14.32;9.45;;;;;;;;;;4147285;34;20211;-68
2022/03/26 11:01:58;;;;;;;14.87;9.75;;;;;;;;;;4148672;34;20118;-69
2022/03/26 11:04:28;;;;;;;19.33;11.68;;;;;;;;;;4136464;34;20118;-68
2022/03/26 11:06:55;;;;;;;16.52;11.50;;;;;;;;;;4148449;34;20664;-68
2022/03/26 11:09:22;;;;;;;16.35;10.82;;;;;;;;;;4148539;34;20104;-69
2022/03/26 11:11:51;;;;;;;17.05;8.45;;;;;;;;;;4136080;34;20114;-66
2022/03/26 11:14:24;;;;;;;13.93;9.85;;;;;;;;;;4136097;34;20111;-70
2022/03/26 11:17:05;;;;;;;11.63;9.13;;;;;;;;;;4148493;34;20195;-68
2022/03/26 11:19:31;;;;;;;16.85;9.30;;;;;;;;;;4148490;34;20135;-60
2022/03/26 11:22:22;;;;;;;9.88;6.82;;;;;;;;;;4148467;34;20119;-60
2022/03/26 11:25:02;;;;;;;10.63;7.45;;;;;;;;;;4140360;34;20228;-60
2022/03/26 11:27:46;;;;;;;12.37;8.70;;;;;;;;;;4136930;34;20212;-60
2022/03/26 11:30:27;;;;;;;15.57;9.45;;;;;;;;;;4132209;34;20158;-59
2022/03/26 11:32:55;;;;;;;15.10;10.23;;;;;;;;;;4139915;34;20099;-61
2022/03/26 11:35:21;;;;;;;15.95;11.60;;;;;;;;;;4135787;34;20123;-60
2022/03/26 11:38:00;;;;;;;16.70;14.68;;;;;;;;;;4144764;34;20127;-60
2022/03/26 11:40:45;;;;;;;18.17;13.88;;;;;;;;;;4133795;34;20589;-60
2022/03/26 11:43:15;;;;;;;12.37;10.60;;;;;;;;;;4123680;34;20124;-60
2022/03/26 11:51:26;;;;;;;13.38;9.50;;;;;;;;;;4144227;34;20110;-61
2022/03/26 11:54:13;;;;;;;12.52;9.20;;;;;;;;;;4136707;34;20200;-61
2022/03/26 11:56:39;;;;;;;13.62;9.77;;;;;;;;;;4141948;34;20197;-60
2022/03/26 11:59:07;;;;;;;14.40;8.27;;;;;;;;;;4150277;34;20422;-61
2022/03/26 12:01:40;;;;;;;13.40;8.90;;;;;;;;;;4147136;34;20117;-60
2022/03/26 12:04:27;;;;;;;13.65;8.10;;;;;;;;;;4150438;34;20115;-58
2022/03/26 12:07:00;;;;;;;13.88;8.50;;;;;;;;;;4148164;34;20210;-60
2022/03/26 12:09:33;;;;;;;17.35;9.25;;;;;;;;;;4149419;34;20618;-59
2022/03/26 12:12:05;;;;;;;19.23;11.43;;;;;;;;;;4148635;34;20120;-59
2022/03/26 12:14:31;;;;;;;15.82;11.40;;;;;;;;;;4148392;34;20206;-59
2022/03/26 12:16:58;;;;;;;11.98;8.82;;;;;;;;;;4148517;34;20131;-59
2022/03/26 12:19:37;;;;;;;14.87;8.90;;;;;;;;;;4147975;34;20535;-59
2022/03/26 12:22:19;;;;;;;11.55;8.55;;;;;;;;;;4148363;34;20162;-60
2022/03/26 12:24:46;;;;;;;19.17;10.57;;;;;;;;;;4140895;34;20116;-60
2022/03/26 12:27:13;;;;;;;18.45;12.93;;;;;;;;;;4137212;34;20110;-59
2022/03/26 12:29:40;;;;;;;21.15;14.82;;;;;;;;;;4136957;34;20090;-60
2022/03/26 12:32:06;;;;;;;26.83;13.23;;;;;;;;;;4135712;34;20119;-60
2022/03/26 12:34:32;;;;;;;16.60;11.68;;;;;;;;;;4136929;34;20538;-59
2022/03/26 12:37:03;;;;;;;17.92;11.93;;;;;;;;;;4136269;34;20476;-61
2022/03/26 12:39:29;;;;;;;17.92;11.30;;;;;;;;;;4130953;34;20150;-61
2022/03/26 12:41:56;;;;;;;16.70;10.75;;;;;;;;;;4136380;34;20115;-60
2022/03/26 12:44:23;;;;;;;17.05;9.70;;;;;;;;;;4135483;34;20788;-60
2022/03/26 12:46:49;;;;;;;20.58;13.30;;;;;;;;;;4136372;34;20107;-60
2022/03/26 12:49:22;;;;;;;24.73;15.02;;;;;;;;;;4135841;34;20123;-60
2022/03/26 12:51:50;;;;;;;7.22;3.62;;;;;;;;;;4136613;34;20114;-58
2022/03/26 12:54:16;;;;;;;1.35;1.27;;;;;;;;;;4135786;34;20119;-59
2022/03/26 12:56:42;;;;;;;2.65;2.15;;;;;;;;;;4136345;34;20536;-59
2022/03/26 12:59:09;;;;;;;14.52;8.65;;;;;;;;;;4134575;34;20126;-59
2022/03/26 13:01:36;;;;;;;17.52;11.02;;;;;;;;;;4136460;34;20107;-59
2022/03/26 13:04:02;;;;;;;16.55;10.52;;;;;;;;;;4136189;34;21053;-59
2022/03/26 13:06:28;;;;;;;17.40;10.68;;;;;;;;;;4136877;34;20127;-59
2022/03/26 13:08:59;;;;;;;21.15;13.07;;;;;;;;;;4135489;34;20119;-59
2022/03/26 13:11:30;;;;;;;25.65;12.95;;;;;;;;;;4135767;34;20280;-66
2022/03/26 13:14:01;;;;;;;19.62;14.18;;;;;;;;;;4135143;34;20087;-60
2022/03/26 13:16:32;;;;;;;20.70;13.15;;;;;;;;;;4124111;34;20117;-60
2022/03/26 13:18:58;;;;;;;16.00;11.30;;;;;;;;;;4135581;34;20702;-60
2022/03/26 13:21:25;;;;;;;17.98;11.00;;;;;;;;;;4133847;34;20118;-61
2022/03/26 13:23:55;;;;;;;13.02;10.65;;;;;;;;;;4136327;34;20099;-60
2022/03/26 13:26:21;;;;;;;12.20;8.30;;;;;;;;;;4135979;34;20099;-59
2022/03/26 13:28:47;;;;;;;17.45;10.93;;;;;;;;;;4136105;34;20104;-60
2022/03/26 13:31:22;;;;;;;11.98;9.25;;;;;;;;;;4121835;34;20095;-59
2022/03/26 13:33:48;;;;;;;11.35;9.45;;;;;;;;;;4131669;34;20099;-62
2022/03/26 13:36:14;;;;;;;13.50;8.07;;;;;;;;;;4133148;34;20120;-60
2022/03/26 13:38:43;;;;;;;11.02;8.85;;;;;;;;;;4132754;34;20512;-60
2022/03/26 13:41:16;;;;;;;13.80;9.23;;;;;;;;;;4133758;34;20546;-60
2022/03/26 13:43:43;;;;;;;15.50;9.70;;;;;;;;;;4128435;34;20095;-60
2022/03/26 13:46:10;;;;;;;15.02;9.45;;;;;;;;;;4134875;34;20115;-60
2022/03/26 13:48:53;;;;;;;14.82;11.10;;;;;;;;;;4130357;34;20239;-60
2022/03/26 13:51:31;;;;;;;16.15;11.32;;;;;;;;;;4135019;34;20532;-60
2022/03/26 13:54:01;;;;;;;12.73;9.93;;;;;;;;;;4135459;34;20505;-60
2022/03/26 13:56:28;;;;;;;13.70;10.68;;;;;;;;;;4129552;34;20456;-62
2022/03/26 13:58:55;;;;;;;11.12;8.50;;;;;;;;;;4131530;34;20115;-61
2022/03/26 14:01:22;;;;;;;9.93;6.87;;;;;;;;;;4135609;34;20112;-61
2022/03/26 14:03:59;;;;;;;11.85;8.75;;;;;;;;;;4134691;34;20129;-61
2022/03/26 14:06:25;;;;;;;11.95;7.97;;;;;;;;;;4135772;34;20143;-61
2022/03/26 14:08:51;;;;;;;13.23;9.23;;;;;;;;;;4134717;34;20226;-59
2022/03/26 14:11:18;;;;;;;13.48;9.35;;;;;;;;;;4136056;34;20111;-66
2022/03/26 14:13:46;;;;;;;10.57;8.00;;;;;;;;;;4136040;34;20115;-64
2022/03/26 14:16:15;;;;;;;13.88;8.82;;;;;;;;;;4136075;34;20111;-67
2022/03/26 14:18:41;;;;;;;10.00;8.93;;;;;;;;;;4135847;34;20115;-60
2022/03/26 14:21:07;;;;;;;15.25;9.93;;;;;;;;;;4135807;34;20174;-60
2022/03/26 14:23:33;;;;;;;11.68;8.48;;;;;;;;;;4135759;34;20119;-61
2022/03/26 14:25:59;;;;;;;19.77;10.15;;;;;;;;;;4135937;34;20134;-61
2022/03/26 14:28:26;;;;;;;14.27;11.50;;;;;;;;;;4135988;34;20527;-61
2022/03/26 14:30:52;;;;;;;18.70;11.80;;;;;;;;;;4135585;34;20135;-62
2022/03/26 14:33:18;;;;;;;15.57;11.73;;;;;;;;;;4135822;34;20138;-62
2022/03/26 14:35:47;;;;;;;15.07;10.73;;;;;;;;;;4122977;34;20540;-62
2022/03/26 14:38:13;;;;;;;12.35;10.55;;;;;;;;;;4135313;34;20120;-62
2022/03/26 14:40:39;;;;;;;11.85;9.35;;;;;;;;;;4134645;34;20662;-62
2022/03/26 14:43:06;;;;;;;13.80;10.32;;;;;;;;;;4134389;34;20224;-60
2022/03/26 14:45:33;;;;;;;14.27;9.32;;;;;;;;;;4135340;34;20104;-62
2022/03/26 14:48:00;;;;;;;12.95;9.40;;;;;;;;;;4123397;34;20141;-62
2022/03/26 14:50:26;;;;;;;11.38;9.32;;;;;;;;;;4135336;34;20185;-62
2022/03/26 14:52:52;;;;;;;12.52;7.15;;;;;;;;;;4135687;34;20103;-63
2022/03/26 14:55:19;;;;;;;15.05;8.57;;;;;;;;;;4135352;34;20112;-63
2022/03/26 14:57:45;;;;;;;9.90;6.90;;;;;;;;;;4135621;34;20122;-62